createdAt,value
2023-04-15T00:04:00.786Z,95074.97
2023-04-15T00:19:02.701Z,95075.13
2023-04-15T00:34:04.941Z,95072.03
2023-04-15T00:49:06.642Z,95077.84
2023-04-15T01:04:10.455Z,95072.81
2023-04-15T01:19:12.406Z,95067.09
2023-04-15T01:34:14.012Z,95056.13
2023-04-15T01:49:15.888Z,95060.59
2023-04-15T02:04:18.241Z,95051.53
2023-04-15T02:19:19.854Z,95046.50
2023-04-15T02:34:21.676Z,95050.38
2023-04-15T02:49:23.422Z,95040.50
2023-04-15T03:04:25.265Z,95046.41
2023-04-15T03:19:27.010Z,95053.91
2023-04-15T03:34:28.783Z,95044.13
2023-04-15T03:49:30.643Z,95027.84
2023-04-15T04:04:32.686Z,95041.34
2023-04-15T04:19:34.502Z,95032.91
2023-04-15T04:34:36.327Z,95034.81
2023-04-15T04:49:37.973Z,95048.41
2023-04-15T05:04:39.679Z,95051.63
2023-04-15T05:19:41.432Z,95041.16
2023-04-15T05:34:43.021Z,95051.91
2023-04-15T05:49:47.538Z,95064.72
2023-04-15T06:04:49.265Z,95070.28
2023-04-15T06:19:55.673Z,95080.91
2023-04-15T06:34:57.371Z,95086.78
2023-04-15T06:49:59.093Z,95091.78
2023-04-15T07:05:00.878Z,95088.63
2023-04-15T07:20:02.463Z,95077.53
2023-04-15T07:35:04.230Z,95089.97
2023-04-15T07:50:07.066Z,95081.50
2023-04-15T08:05:09.426Z,95083.34
2023-04-15T08:20:11.014Z,95088.16
2023-04-15T08:35:14.549Z,95086.34
2023-04-15T08:50:16.150Z,95089.50
2023-04-15T09:05:17.877Z,95078.31
2023-04-15T09:20:19.590Z,95081.19
2023-04-15T09:35:21.195Z,95109.25
2023-04-15T09:50:22.977Z,95115.56
2023-04-15T10:05:24.601Z,95118.00
2023-04-15T10:20:26.390Z,95135.34
2023-04-15T10:35:28.164Z,95142.34
2023-04-15T10:50:30.132Z,95143.50
2023-04-15T11:05:31.733Z,95148.19
2023-04-15T11:20:33.390Z,95161.06
2023-04-15T11:35:35.093Z,95175.22
2023-04-15T11:50:36.964Z,95195.66
2023-04-15T12:05:38.533Z,95194.97
2023-04-15T12:20:40.103Z,95195.97
2023-04-15T12:35:41.672Z,95211.06
2023-04-15T12:50:43.230Z,95244.75
2023-04-15T13:05:45.047Z,95268.84
2023-04-15T13:20:46.770Z,95266.75
2023-04-15T13:35:48.388Z,95270.78
2023-04-15T13:50:49.988Z,95305.31
2023-04-15T14:05:56.352Z,95307.09
2023-04-15T14:20:57.920Z,95334.91
2023-04-15T14:35:59.641Z,95367.69
2023-04-15T14:51:01.276Z,95394.88
2023-04-15T15:06:03.262Z,95422.00
2023-04-15T15:21:04.803Z,95438.19
2023-04-15T15:36:12.683Z,95463.72
2023-04-15T15:51:14.388Z,95476.75
2023-04-15T16:06:16.799Z,95491.28
2023-04-15T16:21:19.679Z,95499.22
2023-04-15T16:36:21.336Z,95515.28
2023-04-15T16:51:22.978Z,95533.81
2023-04-15T17:06:24.561Z,95550.88
2023-04-15T17:21:26.140Z,95559.94
2023-04-15T17:36:31.113Z,95581.34
2023-04-15T17:51:32.671Z,95583.28
2023-04-15T18:06:41.638Z,95607.56
2023-04-15T18:21:43.231Z,95629.88
2023-04-15T18:36:44.830Z,95651.91
2023-04-15T18:51:46.669Z,95677.50
2023-04-15T19:06:48.221Z,95711.00
2023-04-15T19:21:50.197Z,95723.84
2023-04-15T19:36:52.003Z,95725.56
2023-04-15T19:51:53.591Z,95728.84
2023-04-15T20:06:56.016Z,95735.94
2023-04-15T20:21:57.596Z,95735.94
2023-04-15T20:36:59.157Z,95752.53
2023-04-15T20:52:00.986Z,95755.34
2023-04-15T21:07:02.634Z,95770.41
2023-04-15T21:22:04.410Z,95780.34
2023-04-15T21:37:06.013Z,95795.09
2023-04-15T21:52:07.616Z,95801.97
2023-04-15T22:07:09.228Z,95817.94
2023-04-15T22:22:10.812Z,95819.41
2023-04-15T22:37:12.483Z,95835.31
2023-04-15T22:52:20.220Z,95846.06
2023-04-15T23:07:31.362Z,95858.22
2023-04-15T23:22:32.989Z,95861.34
2023-04-15T23:37:34.558Z,95873.47
2023-04-15T23:52:36.703Z,95866.78
